Terminal Aerodrome Forecast
Issued by NWS Rapid City, SD

Home | Current Version | Previous Version | Graphics & Text | Print | Product List | Glossary On
Versions: 1 2 3 4 5 6 7 8 9 10 11 12 13 14 15 16 17 18
094
FTUS43 KUNR 172302 AAB
TAFRAP
TAF AMD
KRAP 172302Z 1723/1818 07007KT P6SM BKN015
     FM180300 17011KT P6SM OVC130
     FM180500 18008KT P6SM OVC100 WS020/24045KT
     FM181200 34013KT P6SM OVC100=

USA.gov is the U.S. government's official web portal to all federal, state and local government web resources and services.